Time;durP1;ratioP1;P1;durP2;ratioP2;P2;SDS_P1;SDS_P2;PMS_P1;PMS_P2;Temp;Humidity;BMP_temperature;BMP_pressure;BME280_temperature;BME280_humidity;BME280_pressure;Samples;Min_cycle;Max_cycle;Signal;HPM_P1;HPM_P2
2023/03/17 00:12:25;;;;;;;24.35;22.17;;;9.50;99.90;;;;;;6265840;22;20049;-94
2023/03/17 00:47:39;;;;;;;24.55;22.80;;;9.40;99.90;;;;;;6174481;22;20057;-91
2023/03/17 00:50:09;;;;;;;24.20;22.40;;;9.40;99.90;;;;;;6257535;22;20057;-91
2023/03/17 00:52:37;;;;;;;24.17;22.58;;;9.30;99.90;;;;;;6257336;22;20007;-92
2023/03/17 00:55:07;;;;;;;24.83;23.00;;;9.40;99.90;;;;;;6257898;22;20026;-92
2023/03/17 00:57:37;;;;;;;24.70;22.95;;;9.30;99.90;;;;;;6257813;22;20008;-92
2023/03/17 01:00:06;;;;;;;24.88;23.00;;;9.30;99.90;;;;;;6252020;22;20004;-92
2023/03/17 01:02:35;;;;;;;24.20;22.65;;;9.30;99.90;;;;;;6277460;22;20016;-91
2023/03/17 01:05:03;;;;;;;24.77;23.00;;;9.20;99.90;;;;;;6252001;22;20425;-92
2023/03/17 01:07:29;;;;;;;24.38;22.77;;;9.20;99.90;;;;;;6277182;22;20018;-90
2023/03/17 01:09:56;;;;;;;25.15;23.30;;;9.20;99.90;;;;;;6252253;22;20380;-94
2023/03/17 01:12:23;;;;;;;24.52;22.70;;;9.10;99.90;;;;;;6251889;22;20008;-91
2023/03/17 01:14:49;;;;;;;24.80;23.00;;;9.20;99.90;;;;;;6277262;22;20008;-92
2023/03/17 01:17:17;;;;;;;25.35;23.65;;;9.20;99.90;;;;;;6277627;22;20015;-90
2023/03/17 01:19:45;;;;;;;25.23;23.27;;;9.20;99.90;;;;;;6251877;22;20008;-92
2023/03/17 01:22:13;;;;;;;25.60;23.88;;;9.20;99.90;;;;;;6251852;22;20019;-92
2023/03/17 01:24:40;;;;;;;25.65;23.75;;;9.20;99.90;;;;;;6277357;22;20007;-93
2023/03/17 01:27:07;;;;;;;25.75;23.98;;;9.10;99.90;;;;;;6252314;22;20031;-91
2023/03/17 01:29:34;;;;;;;25.45;23.75;;;9.10;99.90;;;;;;6278773;22;20064;-90
2023/03/17 01:32:00;;;;;;;26.02;24.15;;;9.10;99.90;;;;;;6279815;22;20007;-92
2023/03/17 01:34:27;;;;;;;25.45;23.85;;;9.10;99.90;;;;;;6246857;22;20035;-91
2023/03/17 01:36:54;;;;;;;25.58;23.77;;;9.10;99.90;;;;;;6277170;22;20020;-91
2023/03/17 01:39:21;;;;;;;24.80;23.13;;;9.00;99.90;;;;;;6251726;22;20373;-92
2023/03/17 01:41:47;;;;;;;25.13;23.52;;;9.00;99.90;;;;;;6276845;22;20437;-93
2023/03/17 01:44:18;;;;;;;25.58;23.60;;;9.10;99.90;;;;;;6276868;22;20090;-91
2023/03/17 01:46:46;;;;;;;25.58;23.70;;;9.10;99.90;;;;;;6277211;22;20008;-92
2023/03/17 01:49:29;;;;;;;26.80;24.60;;;9.00;99.90;;;;;;6246199;22;20102;-93
2023/03/17 01:52:16;;;;;;;25.48;23.70;;;9.00;99.90;;;;;;6221149;23;20004;-91
2023/03/17 01:55:15;;;;;;;24.92;23.15;;;9.00;99.90;;;;;;6221680;23;20008;-93
2023/03/17 01:57:50;;;;;;;25.33;23.33;;;9.00;99.90;;;;;;6077792;23;20006;-91
2023/03/17 02:00:19;;;;;;;24.90;23.20;;;9.00;99.90;;;;;;6125971;23;20010;-92
2023/03/17 02:02:53;;;;;;;25.02;23.02;;;9.10;99.90;;;;;;6101672;23;20014;-91
2023/03/17 02:05:24;;;;;;;25.35;23.20;;;9.10;99.90;;;;;;6126022;23;20034;-91
2023/03/17 02:07:52;;;;;;;24.80;22.95;;;9.10;99.90;;;;;;6125656;23;20097;-93
2023/03/17 02:10:21;;;;;;;25.20;23.30;;;9.10;99.90;;;;;;6101365;23;20061;-93
2023/03/17 02:12:55;;;;;;;25.05;23.23;;;9.10;99.90;;;;;;6125760;23;20041;-92
2023/03/17 02:15:23;;;;;;;25.42;23.33;;;9.10;99.90;;;;;;6101736;23;20554;-94
2023/03/17 02:17:54;;;;;;;25.30;23.08;;;9.10;99.90;;;;;;6101386;23;20010;-92
2023/03/17 02:20:21;;;;;;;25.80;23.92;;;9.10;99.90;;;;;;6125799;23;20013;-92
2023/03/17 02:22:54;;;;;;;25.40;23.27;;;9.10;99.90;;;;;;6125777;23;20072;-92
2023/03/17 02:25:23;;;;;;;24.70;22.90;;;9.10;99.90;;;;;;6101449;23;20033;-92
2023/03/17 02:27:58;;;;;;;25.40;23.50;;;9.10;99.90;;;;;;6101255;23;20010;-93
2023/03/17 02:30:25;;;;;;;25.98;24.17;;;9.00;99.90;;;;;;6125846;23;20344;-92
2023/03/17 02:32:54;;;;;;;25.52;23.75;;;9.00;99.90;;;;;;6104916;23;20026;-91
2023/03/17 02:35:22;;;;;;;25.88;23.98;;;9.00;99.90;;;;;;6220751;23;20012;-90
2023/03/17 02:37:48;;;;;;;26.50;24.63;;;8.90;99.90;;;;;;6195825;23;20028;-90
2023/03/17 02:40:15;;;;;;;26.38;24.33;;;8.90;99.90;;;;;;6220785;23;20023;-92
2023/03/17 02:42:42;;;;;;;25.55;23.83;;;8.90;99.90;;;;;;6220845;23;20016;-91
2023/03/17 02:45:10;;;;;;;26.85;24.63;;;8.90;99.90;;;;;;6220713;23;20074;-91
2023/03/17 02:47:38;;;;;;;26.23;24.30;;;8.80;99.90;;;;;;6220871;23;20433;-92
2023/03/17 02:50:07;;;;;;;26.25;24.42;;;8.80;99.90;;;;;;6220836;23;20463;-92
2023/03/17 02:52:34;;;;;;;25.92;24.02;;;8.80;99.90;;;;;;6246258;22;20062;-92
2023/03/17 02:55:02;;;;;;;25.20;23.63;;;8.70;99.90;;;;;;6246518;22;20000;-92
2023/03/17 02:57:29;;;;;;;25.58;23.80;;;8.70;99.90;;;;;;6245734;23;20142;-91
2023/03/17 02:59:55;;;;;;;25.83;24.25;;;8.80;99.90;;;;;;6246306;22;20031;-91
2023/03/17 03:02:21;;;;;;;25.85;24.25;;;8.80;99.90;;;;;;6215355;23;20016;-92
2023/03/17 03:04:49;;;;;;;26.60;24.70;;;8.70;99.90;;;;;;6248628;23;20019;-91
2023/03/17 03:07:15;;;;;;;26.10;24.23;;;8.70;99.90;;;;;;6245911;23;20016;-91
2023/03/17 03:09:46;;;;;;;26.63;24.95;;;8.70;99.90;;;;;;6246224;22;20437;-91
2023/03/17 03:12:13;;;;;;;26.23;24.35;;;8.70;99.90;;;;;;6246062;22;20016;-91
2023/03/17 03:14:39;;;;;;;27.33;25.05;;;8.70;99.90;;;;;;6246189;22;20008;-92
2023/03/17 03:17:06;;;;;;;26.67;24.98;;;8.60;99.90;;;;;;6245898;22;20008;-91
2023/03/17 03:19:33;;;;;;;26.92;25.08;;;8.60;99.90;;;;;;6246053;22;20346;-92
2023/03/17 03:21:59;;;;;;;27.50;25.25;;;8.70;99.90;;;;;;6245992;22;20085;-91
2023/03/17 03:24:26;;;;;;;26.85;24.75;;;8.60;99.90;;;;;;6245847;23;20461;-93
2023/03/17 03:26:53;;;;;;;25.90;24.35;;;8.60;99.90;;;;;;6246041;22;20011;-90
2023/03/17 03:29:19;;;;;;;26.48;24.80;;;8.60;99.90;;;;;;6245856;23;19996;-91
2023/03/17 03:31:47;;;;;;;26.63;24.73;;;8.60;99.90;;;;;;6245558;22;20092;-90
2023/03/17 03:34:14;;;;;;;26.98;24.98;;;8.60;99.90;;;;;;6245895;22;20016;-90
2023/03/17 03:36:41;;;;;;;25.52;24.05;;;8.60;99.90;;;;;;6245771;22;20087;-91
2023/03/17 03:39:08;;;;;;;25.50;23.85;;;8.60;99.90;;;;;;6247165;23;20008;-92
2023/03/17 03:41:35;;;;;;;25.67;23.95;;;8.60;99.90;;;;;;6248266;22;20055;-89
2023/03/17 03:44:01;;;;;;;25.70;23.95;;;8.50;99.90;;;;;;6246344;23;20008;-91
2023/03/17 03:46:28;;;;;;;26.70;24.52;;;8.50;99.90;;;;;;6247848;23;20011;-91
2023/03/17 03:48:54;;;;;;;25.90;23.75;;;8.40;99.90;;;;;;6247670;23;20043;-91
2023/03/17 03:51:20;;;;;;;26.05;24.35;;;8.50;99.90;;;;;;6222194;23;20004;-91
2023/03/17 03:53:47;;;;;;;26.13;24.17;;;8.50;99.90;;;;;;6222242;23;20004;-91
2023/03/17 03:56:13;;;;;;;26.33;24.52;;;8.50;99.90;;;;;;6222402;23;20012;-91
2023/03/17 03:58:40;;;;;;;26.65;24.85;;;8.50;99.90;;;;;;6222081;23;20057;-92
2023/03/17 04:01:08;;;;;;;26.20;24.27;;;8.50;99.90;;;;;;6223052;22;20008;-90
2023/03/17 04:03:38;;;;;;;25.75;24.13;;;8.50;99.90;;;;;;6247215;23;20012;-90
2023/03/17 04:06:05;;;;;;;25.90;24.00;;;8.40;99.90;;;;;;6222144;23;20429;-92
2023/03/17 04:08:32;;;;;;;25.88;24.23;;;8.50;99.90;;;;;;6248384;23;20004;-92
2023/03/17 04:10:58;;;;;;;25.92;24.08;;;8.50;99.90;;;;;;6248407;23;20004;-91
2023/03/17 04:13:24;;;;;;;25.48;23.77;;;8.50;99.90;;;;;;6222004;23;20079;-91
2023/03/17 04:15:51;;;;;;;25.90;24.02;;;8.50;99.90;;;;;;6221983;23;20065;-90
2023/03/17 04:18:18;;;;;;;25.20;23.48;;;8.50;99.90;;;;;;6222241;23;20004;-90
2023/03/17 04:20:44;;;;;;;25.02;23.42;;;8.50;99.90;;;;;;6245801;23;20008;-90
2023/03/17 04:23:11;;;;;;;26.13;24.10;;;8.50;99.90;;;;;;6227870;23;20062;-90
2023/03/17 04:25:38;;;;;;;25.25;23.65;;;8.60;99.90;;;;;;6228141;23;20009;-91
2023/03/17 04:28:05;;;;;;;25.33;23.63;;;8.60;99.90;;;;;;6223718;23;20008;-90
2023/03/17 04:30:31;;;;;;;25.73;23.83;;;8.60;99.90;;;;;;6222646;23;20012;-90
2023/03/17 04:32:58;;;;;;;25.63;23.73;;;8.60;99.90;;;;;;6222257;23;20004;-90
2023/03/17 04:35:25;;;;;;;25.30;23.23;;;8.70;99.90;;;;;;6221780;23;20008;-92
2023/03/17 04:37:51;;;;;;;24.88;23.27;;;8.70;99.90;;;;;;6221980;23;20004;-91
2023/03/17 04:40:19;;;;;;;25.38;23.45;;;8.70;99.90;;;;;;6221888;23;20004;-93
2023/03/17 04:42:45;;;;;;;24.33;22.83;;;8.80;99.90;;;;;;6246760;22;20020;-92
2023/03/17 04:45:19;;;;;;;24.63;23.23;;;8.80;99.90;;;;;;6221890;23;20004;-89
2023/03/17 04:47:46;;;;;;;25.05;23.42;;;8.80;99.90;;;;;;6252026;22;20103;-90
2023/03/17 04:50:13;;;;;;;24.63;23.02;;;8.80;99.90;;;;;;6277570;22;20011;-91
2023/03/17 04:52:40;;;;;;;24.52;22.90;;;8.80;99.90;;;;;;6277722;22;20103;-91
2023/03/17 04:55:10;;;;;;;24.75;23.00;;;8.70;99.90;;;;;;6251903;22;20008;-92
2023/03/17 04:57:37;;;;;;;23.63;22.17;;;8.70;99.90;;;;;;6277832;22;19999;-90
2023/03/17 05:00:06;;;;;;;24.98;23.20;;;8.70;99.90;;;;;;6251976;22;20008;-93
2023/03/17 05:02:32;;;;;;;24.27;22.75;;;8.70;99.90;;;;;;6277138;22;20023;-93
2023/03/17 05:04:58;;;;;;;25.05;23.02;;;8.70;99.90;;;;;;6252048;22;20022;-91
2023/03/17 05:07:25;;;;;;;24.70;22.60;;;8.70;99.90;;;;;;6277684;22;20094;-91
2023/03/17 05:09:51;;;;;;;24.40;22.40;;;8.70;99.90;;;;;;6277483;22;20007;-92
2023/03/17 05:12:17;;;;;;;24.83;22.63;;;8.80;99.90;;;;;;6251951;22;20000;-93
2023/03/17 05:14:44;;;;;;;24.20;22.38;;;8.80;99.90;;;;;;6252097;22;20011;-92
2023/03/17 05:17:10;;;;;;;24.65;22.73;;;8.80;99.90;;;;;;6277683;22;20003;-91
2023/03/17 05:19:37;;;;;;;24.67;22.60;;;8.80;99.90;;;;;;6251768;22;20008;-93
2023/03/17 05:22:03;;;;;;;24.73;23.23;;;8.80;99.90;;;;;;6226607;22;20031;-90
2023/03/17 05:24:30;;;;;;;24.15;22.55;;;8.80;99.90;;;;;;6251819;22;20037;-90
2023/03/17 05:26:56;;;;;;;24.67;22.83;;;8.80;99.90;;;;;;6277293;22;20027;-90
2023/03/17 05:29:23;;;;;;;23.92;22.42;;;8.80;99.90;;;;;;6251859;22;20122;-92
2023/03/17 05:31:49;;;;;;;25.05;23.27;;;8.90;99.90;;;;;;6277226;22;20011;-90
2023/03/17 05:34:16;;;;;;;24.30;22.58;;;8.90;99.90;;;;;;6251528;22;20053;-90
2023/03/17 05:36:43;;;;;;;24.20;22.45;;;8.90;99.90;;;;;;6251696;22;20011;-91
2023/03/17 05:39:10;;;;;;;24.05;22.20;;;8.90;99.90;;;;;;6251741;22;20011;-89
2023/03/17 05:41:37;;;;;;;23.98;22.27;;;9.00;99.90;;;;;;6277234;22;20058;-90
2023/03/17 05:44:04;;;;;;;24.42;22.60;;;9.10;99.90;;;;;;6277271;22;20066;-91
2023/03/17 05:46:30;;;;;;;23.70;22.20;;;9.10;99.90;;;;;;6277812;22;20011;-90
2023/03/17 05:48:57;;;;;;;23.90;22.30;;;9.30;99.90;;;;;;6271428;22;20019;-90
2023/03/17 05:51:23;;;;;;;24.35;22.42;;;9.50;99.90;;;;;;6277635;22;20008;-92
2023/03/17 05:53:50;;;;;;;24.08;22.30;;;9.90;99.90;;;;;;6277316;22;20016;-90
2023/03/17 05:56:19;;;;;;;23.80;22.40;;;10.30;99.90;;;;;;6251490;22;20053;-94
2023/03/17 05:58:46;;;;;;;25.08;23.15;;;10.70;99.90;;;;;;6251816;22;20083;-92
2023/03/17 06:01:13;;;;;;;25.15;23.20;;;11.20;99.90;;;;;;6276901;22;20003;-89
2023/03/17 06:03:40;;;;;;;24.80;23.38;;;11.70;99.90;;;;;;6251418;22;20019;-94
2023/03/17 06:06:08;;;;;;;25.63;23.77;;;11.60;99.90;;;;;;6257199;22;20003;-92
2023/03/17 06:08:34;;;;;;;26.35;24.58;;;11.60;99.90;;;;;;6276707;22;20014;-96
2023/03/17 06:11:01;;;;;;;25.40;24.02;;;11.90;99.90;;;;;;6276995;22;20010;-92
2023/03/17 06:13:28;;;;;;;26.20;24.20;;;11.90;99.90;;;;;;6251473;22;20004;-91
2023/03/17 06:15:55;;;;;;;25.88;24.30;;;12.10;99.90;;;;;;6251823;22;20008;-92
2023/03/17 06:18:21;;;;;;;25.85;24.10;;;12.30;99.90;;;;;;6251612;22;20003;-93
2023/03/17 06:20:48;;;;;;;25.15;23.48;;;12.50;99.90;;;;;;6276602;22;20004;-93
2023/03/17 06:23:40;;;;;;;25.75;24.13;;;12.60;99.90;;;;;;6247583;22;20016;-93
2023/03/17 06:26:07;;;;;;;26.60;24.65;;;12.40;99.90;;;;;;6252420;22;20441;-91
2023/03/17 06:28:36;;;;;;;26.23;24.50;;;12.60;99.90;;;;;;6250982;22;20011;-90
2023/03/17 06:31:02;;;;;;;25.60;24.10;;;12.20;99.90;;;;;;6276910;22;20010;-90
2023/03/17 06:33:29;;;;;;;26.08;24.27;;;12.20;99.90;;;;;;6277339;22;20425;-93
2023/03/17 06:35:57;;;;;;;26.33;24.73;;;12.30;99.90;;;;;;6276447;22;20465;-91
2023/03/17 06:38:24;;;;;;;26.45;24.60;;;12.60;99.90;;;;;;6250866;22;20038;-91
2023/03/17 06:40:50;;;;;;;26.70;24.95;;;12.60;99.90;;;;;;6251140;22;20091;-92
2023/03/17 06:43:18;;;;;;;26.38;24.67;;;12.60;99.90;;;;;;6276368;22;20015;-91
2023/03/17 06:45:45;;;;;;;26.33;24.52;;;12.60;99.90;;;;;;6250877;22;20011;-92
2023/03/17 06:48:11;;;;;;;26.88;25.08;;;12.60;99.90;;;;;;6245908;23;20019;-91
2023/03/17 06:50:38;;;;;;;25.73;24.30;;;12.60;99.90;;;;;;6195592;23;20008;-89
2023/03/17 06:53:06;;;;;;;26.92;25.13;;;12.50;99.90;;;;;;6220637;23;20019;-93
2023/03/17 06:55:33;;;;;;;26.05;24.38;;;12.50;99.90;;;;;;6220829;23;20111;-89
2023/03/17 06:58:00;;;;;;;25.95;24.27;;;12.40;99.90;;;;;;6222010;23;20012;-91
2023/03/17 07:00:27;;;;;;;26.58;24.90;;;12.50;99.90;;;;;;6220537;23;20030;-91
2023/03/17 07:02:54;;;;;;;26.30;24.38;;;12.40;99.90;;;;;;6170575;23;20111;-92
2023/03/17 07:05:21;;;;;;;26.48;24.33;;;12.80;99.90;;;;;;6220712;23;20015;-89
2023/03/17 07:07:49;;;;;;;26.15;24.08;;;13.10;99.90;;;;;;6220959;23;20004;-91
2023/03/17 07:10:16;;;;;;;26.65;24.80;;;13.50;99.90;;;;;;6223220;23;20004;-90
2023/03/17 07:12:42;;;;;;;26.10;24.23;;;13.30;99.90;;;;;;6215957;22;20020;-81
2023/03/17 07:15:11;;;;;;;25.80;24.10;;;13.00;99.90;;;;;;6274028;22;20340;-86
2023/03/17 07:17:37;;;;;;;24.83;23.10;;;12.80;99.90;;;;;;6245636;23;20008;-86
2023/03/17 07:20:05;;;;;;;25.63;24.10;;;12.70;99.90;;;;;;6247862;23;20323;-85
2023/03/17 07:22:31;;;;;;;26.25;24.48;;;12.60;99.90;;;;;;6247691;23;20473;-87
2023/03/17 07:24:58;;;;;;;25.52;23.67;;;12.60;99.90;;;;;;6248048;23;20091;-88
2023/03/17 07:27:25;;;;;;;26.55;24.70;;;12.80;99.90;;;;;;6248530;23;20012;-84
2023/03/17 07:29:52;;;;;;;25.65;23.95;;;12.50;99.90;;;;;;6273116;22;20005;-85
2023/03/17 07:32:18;;;;;;;25.52;23.83;;;12.50;99.90;;;;;;6247862;23;20008;-86
2023/03/17 07:34:45;;;;;;;25.13;23.60;;;12.60;99.90;;;;;;6273140;22;20040;-86
2023/03/17 07:37:11;;;;;;;25.02;23.50;;;12.70;99.90;;;;;;6248129;23;20015;-88
2023/03/17 07:39:38;;;;;;;25.38;23.50;;;12.70;99.90;;;;;;6249401;23;20043;-89
2023/03/17 07:42:05;;;;;;;25.05;23.38;;;12.60;99.90;;;;;;6273178;22;20016;-88
2023/03/17 07:44:32;;;;;;;25.05;23.45;;;12.60;99.90;;;;;;6247689;23;20004;-89
2023/03/17 07:46:58;;;;;;;24.48;23.08;;;12.60;99.90;;;;;;6247881;23;20054;-87
2023/03/17 07:49:25;;;;;;;26.23;24.42;;;12.60;99.90;;;;;;6247868;23;20007;-87
2023/03/17 07:51:51;;;;;;;25.50;23.90;;;12.60;99.90;;;;;;6273066;22;20019;-89
2023/03/17 07:54:18;;;;;;;26.17;24.38;;;12.60;99.90;;;;;;6247468;23;20035;-90
2023/03/17 07:56:44;;;;;;;25.52;23.73;;;12.80;99.90;;;;;;6273041;22;20009;-88
2023/03/17 07:59:11;;;;;;;26.23;24.40;;;13.00;99.90;;;;;;6222011;23;20000;-88
2023/03/17 08:01:38;;;;;;;26.27;24.35;;;13.30;99.90;;;;;;6273066;22;20012;-88
2023/03/17 15:03:31;;;;;;;22.25;20.70;;;13.10;99.90;;;;;;6256215;22;20034;-95
2023/03/17 15:06:33;;;;;;;21.92;20.67;;;12.90;99.90;;;;;;6256344;22;20004;-93
2023/03/17 15:09:16;;;;;;;22.52;20.80;;;12.90;99.90;;;;;;6276965;22;20011;-93
2023/03/17 15:11:44;;;;;;;22.40;21.08;;;12.80;99.90;;;;;;6256288;22;20039;-93
2023/03/17 15:14:40;;;;;;;21.67;20.30;;;12.60;99.90;;;;;;6250592;22;20008;-93
2023/03/17 15:17:32;;;;;;;21.75;20.58;;;12.50;99.90;;;;;;6250575;22;20372;-92
2023/03/17 15:20:06;;;;;;;22.77;21.35;;;12.60;99.90;;;;;;6276419;22;20008;-94
2023/03/17 15:22:36;;;;;;;22.40;21.05;;;12.70;99.90;;;;;;6276118;22;20020;-93
2023/03/17 15:25:15;;;;;;;22.17;20.77;;;12.70;99.90;;;;;;6251064;22;20054;-93
2023/03/17 15:27:43;;;;;;;22.40;21.10;;;12.70;99.90;;;;;;6276671;22;20047;-94
2023/03/17 15:30:11;;;;;;;21.73;20.50;;;12.70;99.90;;;;;;6250754;22;20010;-93
2023/03/17 15:32:38;;;;;;;22.27;20.98;;;12.60;99.90;;;;;;6275906;22;20018;-93
2023/03/17 15:35:07;;;;;;;22.23;20.92;;;12.60;99.90;;;;;;6276319;22;20004;-92
2023/03/17 15:37:34;;;;;;;23.25;21.58;;;12.60;99.90;;;;;;6276142;22;20015;-94
2023/03/17 15:40:04;;;;;;;22.83;21.10;;;12.70;99.90;;;;;;6277271;22;20004;-93
2023/03/17 15:42:33;;;;;;;21.95;20.65;;;12.60;99.90;;;;;;6282095;22;20012;-93
2023/03/17 15:45:00;;;;;;;22.17;20.92;;;12.50;99.90;;;;;;6278993;22;20428;-94
2023/03/17 15:47:30;;;;;;;22.80;21.20;;;12.40;99.90;;;;;;6278502;22;20030;-94
2023/03/17 15:50:00;;;;;;;22.65;21.15;;;12.30;99.90;;;;;;6278340;22;20014;-94
2023/03/17 15:52:27;;;;;;;22.55;20.92;;;12.40;99.90;;;;;;6278605;22;20441;-94
2023/03/17 15:54:58;;;;;;;22.40;20.90;;;12.30;99.90;;;;;;6279408;22;20008;-93
2023/03/17 15:57:26;;;;;;;22.50;20.85;;;12.30;99.90;;;;;;6278430;22;20027;-95
2023/03/17 15:59:52;;;;;;;21.77;20.58;;;12.20;99.90;;;;;;6278432;22;20008;-94
2023/03/17 16:02:27;;;;;;;22.40;21.00;;;12.20;99.90;;;;;;6277758;22;20018;-94
2023/03/17 16:04:56;;;;;;;22.75;21.20;;;12.10;99.90;;;;;;6227630;22;20015;-92
2023/03/17 16:07:23;;;;;;;22.80;20.95;;;12.00;99.90;;;;;;6253073;22;20000;-94
2023/03/17 16:09:50;;;;;;;22.30;20.67;;;12.00;99.90;;;;;;6278377;22;20012;-95
2023/03/17 16:12:19;;;;;;;22.50;21.20;;;11.90;99.90;;;;;;6278357;22;20003;-96
2023/03/17 16:14:46;;;;;;;22.92;21.33;;;12.00;99.90;;;;;;6252512;22;20007;-94
2023/03/17 16:17:19;;;;;;;24.33;22.40;;;12.00;99.90;;;;;;6252811;22;20027;-93
2023/03/17 16:19:51;;;;;;;22.75;21.42;;;12.00;99.90;;;;;;6253469;22;20440;-94
2023/03/17 16:22:39;;;;;;;22.25;20.70;;;11.90;99.90;;;;;;6279096;22;20011;-92
2023/03/17 16:25:31;;;;;;;22.35;21.05;;;11.90;99.90;;;;;;6259269;22;20007;-94
2023/03/17 16:28:00;;;;;;;21.67;20.33;;;11.80;99.90;;;;;;6293340;22;20012;-94
2023/03/17 16:30:33;;;;;;;21.85;20.52;;;11.70;99.90;;;;;;6262626;22;20295;-94
2023/03/17 16:33:15;;;;;;;21.70;20.30;;;11.70;99.90;;;;;;6278871;22;20015;-95
2023/03/17 16:35:42;;;;;;;21.80;20.60;;;11.60;99.90;;;;;;6252169;22;20007;-93
2023/03/17 16:38:13;;;;;;;22.25;20.95;;;11.60;99.90;;;;;;6252116;22;20429;-93
2023/03/17 16:40:40;;;;;;;22.90;21.30;;;11.60;99.90;;;;;;6277768;22;20008;-93
2023/03/17 16:43:31;;;;;;;21.85;20.45;;;11.60;99.90;;;;;;6252096;22;20016;-94
2023/03/17 16:46:01;;;;;;;21.73;20.30;;;11.50;99.90;;;;;;6277718;22;20030;-94
2023/03/17 16:48:28;;;;;;;22.27;20.80;;;11.40;99.90;;;;;;6252123;22;20057;-93
2023/03/17 16:50:58;;;;;;;23.83;21.98;;;11.40;99.90;;;;;;6277465;22;20010;-92
2023/03/17 16:53:25;;;;;;;22.92;21.50;;;11.30;99.90;;;;;;6251751;22;20008;-93
2023/03/17 16:55:53;;;;;;;22.98;21.50;;;11.30;99.90;;;;;;6252375;22;20039;-92
2023/03/17 16:58:31;;;;;;;22.60;20.98;;;11.30;99.90;;;;;;6252701;22;20441;-92
2023/03/17 17:01:03;;;;;;;22.33;20.83;;;11.30;99.90;;;;;;6277294;22;20014;-95
2023/03/17 17:03:30;;;;;;;23.20;21.50;;;11.20;99.90;;;;;;6272113;22;20023;-94
2023/03/17 17:05:57;;;;;;;23.75;21.80;;;11.20;99.90;;;;;;6221865;23;20035;-94
2023/03/17 17:08:24;;;;;;;41.85;22.50;;;11.10;99.90;;;;;;6247619;22;20022;-93
2023/03/17 17:10:51;;;;;;;23.48;21.92;;;11.00;99.90;;;;;;6246745;22;20004;-92
2023/03/17 17:13:18;;;;;;;23.38;21.80;;;11.00;99.90;;;;;;6246778;22;20008;-94
2023/03/17 17:15:46;;;;;;;24.08;22.48;;;11.00;99.90;;;;;;6246677;23;20059;-93
2023/03/17 17:18:16;;;;;;;24.65;22.70;;;11.00;99.90;;;;;;6247115;22;20031;-94
2023/03/17 17:20:47;;;;;;;23.40;21.77;;;10.90;99.90;;;;;;6247140;22;20441;-93
2023/03/17 17:26:48;;;;;;;24.55;22.63;;;10.90;99.90;;;;;;6300707;22;20031;-95
2023/03/17 17:29:53;;;;;;;24.90;22.70;;;10.90;99.90;;;;;;6133459;22;20015;-94
2023/03/17 17:34:57;;;;;;;24.77;22.70;;;10.80;99.90;;;;;;6285914;22;19914;-94
2023/03/17 17:37:23;;;;;;;26.17;24.00;;;10.70;99.90;;;;;;6257872;22;20010;-91
2023/03/17 17:39:52;;;;;;;27.40;24.77;;;10.70;99.90;;;;;;6257021;22;20026;-93
2023/03/17 17:42:19;;;;;;;24.75;22.85;;;10.60;99.90;;;;;;6257640;22;20042;-93
2023/03/17 17:44:46;;;;;;;25.75;23.48;;;10.60;99.90;;;;;;6251702;22;20007;-95
2023/03/17 17:47:14;;;;;;;24.95;22.80;;;10.50;99.90;;;;;;6277248;22;20007;-94
2023/03/17 17:52:33;;;;;;;102.70;92.78;;;10.50;99.90;;;;;;6252851;22;20020;-93
2023/03/17 17:55:00;;;;;;;30.77;28.17;;;10.40;99.90;;;;;;6251942;22;20040;-90
2023/03/17 17:57:27;;;;;;;27.08;24.90;;;10.40;99.90;;;;;;6252044;22;20445;-92
2023/03/17 17:59:54;;;;;;;26.27;23.77;;;10.40;99.90;;;;;;6252026;22;20057;-91
2023/03/17 18:02:21;;;;;;;27.63;25.30;;;10.30;99.90;;;;;;6251260;22;20012;-93
2023/03/17 18:04:47;;;;;;;25.35;23.27;;;10.30;99.90;;;;;;6251294;22;20007;-91
2023/03/17 18:07:14;;;;;;;26.38;24.08;;;10.30;99.90;;;;;;6251497;22;20007;-92
2023/03/17 18:09:40;;;;;;;26.77;24.35;;;10.30;99.90;;;;;;6252011;22;20004;-91
2023/03/17 18:12:07;;;;;;;27.38;24.98;;;10.20;99.90;;;;;;6245362;22;20018;-91
2023/03/17 18:14:33;;;;;;;26.83;24.52;;;10.20;99.90;;;;;;6251461;22;20031;-92
2023/03/17 18:17:00;;;;;;;25.33;22.88;;;10.20;99.90;;;;;;6251612;22;20011;-90
2023/03/17 18:19:26;;;;;;;24.83;22.88;;;10.20;99.90;;;;;;6251585;22;20053;-91
2023/03/17 18:21:53;;;;;;;25.13;22.90;;;10.10;99.90;;;;;;6251962;22;20007;-93
2023/03/17 18:24:23;;;;;;;27.30;24.65;;;10.10;99.90;;;;;;6255203;22;20421;-91
2023/03/17 18:26:51;;;;;;;29.38;26.70;;;10.00;99.90;;;;;;6254463;22;20007;-90
2023/03/17 18:29:17;;;;;;;28.25;25.45;;;10.00;99.90;;;;;;6257670;22;20018;-91
2023/03/17 18:31:49;;;;;;;26.10;23.77;;;9.90;99.90;;;;;;6255690;22;19999;-93
2023/03/17 18:34:23;;;;;;;30.13;27.23;;;9.90;99.90;;;;;;6256586;22;20007;-92
2023/03/17 18:36:50;;;;;;;26.42;24.25;;;9.90;99.90;;;;;;6255345;22;20007;-93
2023/03/17 18:39:17;;;;;;;25.73;23.55;;;9.80;99.90;;;;;;6254235;22;20452;-92
2023/03/17 18:41:44;;;;;;;27.27;24.70;;;9.80;99.90;;;;;;6256961;22;20011;-91
2023/03/17 18:44:11;;;;;;;27.33;24.88;;;9.80;99.90;;;;;;6258327;22;20095;-93
2023/03/17 18:46:38;;;;;;;30.02;27.13;;;9.70;99.90;;;;;;6257673;22;20007;-90
2023/03/17 18:49:06;;;;;;;29.08;26.38;;;9.70;99.90;;;;;;6257539;22;20012;-91
2023/03/17 18:51:33;;;;;;;27.88;24.92;;;9.60;99.90;;;;;;6255760;22;20000;-92
2023/03/17 18:54:00;;;;;;;29.23;26.38;;;9.60;99.90;;;;;;6259511;22;20004;-92
2023/03/17 18:56:28;;;;;;;28.73;26.00;;;9.60;99.90;;;;;;6226331;22;20035;-93
2023/03/17 18:58:56;;;;;;;29.63;26.63;;;9.60;99.90;;;;;;6226901;22;20004;-93
2023/03/17 19:01:23;;;;;;;29.63;26.75;;;9.50;99.90;;;;;;6227496;22;20003;-94
2023/03/17 19:03:53;;;;;;;28.17;25.58;;;9.40;99.90;;;;;;6226132;22;20020;-94
2023/03/17 19:06:26;;;;;;;27.67;25.17;;;9.30;99.90;;;;;;6225973;22;20344;-94
2023/03/17 19:08:53;;;;;;;32.97;28.70;;;9.20;99.90;;;;;;6217803;22;20436;-94
2023/03/17 19:11:23;;;;;;;34.78;31.02;;;9.10;99.90;;;;;;6225905;22;20452;-92
2023/03/17 19:13:51;;;;;;;38.58;34.38;;;9.10;99.90;;;;;;6225501;22;20008;-89
2023/03/17 19:16:20;;;;;;;38.85;34.45;;;9.00;99.90;;;;;;6225669;22;20011;-92
2023/03/17 19:18:47;;;;;;;35.75;31.85;;;9.00;99.90;;;;;;6226222;22;20007;-93
2023/03/17 19:21:16;;;;;;;37.95;33.65;;;8.90;99.90;;;;;;6221060;22;20015;-93
2023/03/17 19:23:43;;;;;;;34.22;30.63;;;8.90;99.90;;;;;;6226170;22;20050;-92
2023/03/17 19:26:12;;;;;;;35.60;30.05;;;8.90;99.90;;;;;;6226802;22;20032;-92
2023/03/17 19:28:39;;;;;;;31.23;28.15;;;8.90;99.90;;;;;;6225858;22;20448;-92
2023/03/17 19:31:13;;;;;;;60.75;42.95;;;8.90;99.90;;;;;;6225890;22;20003;-95
2023/03/17 19:33:40;;;;;;;65.68;49.25;;;8.90;99.90;;;;;;6226457;22;20307;-93
2023/03/17 19:36:12;;;;;;;40.17;35.55;;;8.90;99.90;;;;;;6225930;22;20004;-92
2023/03/17 19:38:39;;;;;;;36.80;31.88;;;8.90;99.90;;;;;;6225589;22;20008;-94
2023/03/17 19:41:06;;;;;;;36.55;32.55;;;8.80;99.90;;;;;;6250697;22;20090;-90
2023/03/17 19:43:33;;;;;;;37.92;32.55;;;8.80;99.90;;;;;;6226065;22;20016;-91
2023/03/17 19:46:05;;;;;;;35.88;31.77;;;8.80;99.90;;;;;;6225518;22;20087;-92
2023/03/17 19:48:32;;;;;;;39.88;32.65;;;8.70;99.90;;;;;;6250830;22;20008;-92
2023/03/17 19:51:03;;;;;;;36.78;32.58;;;8.70;99.90;;;;;;6225533;22;20003;-93
2023/03/17 19:53:36;;;;;;;37.92;31.23;;;8.70;99.90;;;;;;6247820;22;20011;-94
2023/03/17 19:56:06;;;;;;;35.83;31.17;;;8.70;99.90;;;;;;6252464;22;20011;-93
2023/03/17 19:58:32;;;;;;;37.85;32.17;;;8.60;99.90;;;;;;6260254;22;20004;-90
2023/03/17 20:00:58;;;;;;;38.55;33.92;;;8.50;99.90;;;;;;6264639;22;20004;-90
2023/03/17 20:03:25;;;;;;;42.03;32.17;;;8.50;99.90;;;;;;6263815;22;20016;-92
2023/03/17 20:05:52;;;;;;;36.75;33.05;;;8.50;99.90;;;;;;6253214;22;20004;-92
2023/03/17 20:08:18;;;;;;;40.10;34.25;;;8.40;99.90;;;;;;6266438;22;20015;-92
2023/03/17 20:11:09;;;;;;;38.17;33.03;;;8.40;99.90;;;;;;6251018;22;20007;-92
2023/03/17 20:14:35;;;;;;;34.85;30.88;;;8.30;99.90;;;;;;6258618;22;20037;-93
2023/03/17 20:20:53;;;;;;;37.45;31.05;;;8.10;99.90;;;;;;6282347;22;20022;-94
2023/03/17 20:23:24;;;;;;;39.58;31.77;;;8.10;99.90;;;;;;6255683;22;20020;-94
2023/03/17 20:31:49;;;;;;;37.65;31.65;;;7.90;99.90;;;;;;6316824;22;20046;-91
2023/03/17 20:34:35;;;;;;;33.33;29.80;;;7.90;99.90;;;;;;6266302;22;20007;-94
2023/03/17 20:37:05;;;;;;;32.15;28.75;;;7.90;99.90;;;;;;6233489;22;20011;-92
2023/03/17 20:39:32;;;;;;;34.17;29.38;;;7.90;99.90;;;;;;6231456;22;20011;-93
2023/03/17 20:42:00;;;;;;;33.03;29.70;;;7.90;99.90;;;;;;6232378;22;20087;-95
2023/03/17 20:44:26;;;;;;;33.90;30.05;;;7.80;99.90;;;;;;6230790;22;20016;-95